sensor_id;sensor_type;location;lat;lon;timestamp;P1;durP1;ratioP1;P2;durP2;ratioP2
82495;SDS011;72133;42.522;24.800;2024-02-21T00:00:56;48.58;;;29.50;;
82495;SDS011;72133;42.522;24.800;2024-02-21T00:03:22;43.00;;;26.55;;
82495;SDS011;72133;42.522;24.800;2024-02-21T00:05:48;45.92;;;27.58;;
82495;SDS011;72133;42.522;24.800;2024-02-21T00:08:13;45.25;;;28.98;;
82495;SDS011;72133;42.522;24.800;2024-02-21T00:10:39;47.20;;;29.23;;
82495;SDS011;72133;42.522;24.800;2024-02-21T00:13:04;47.75;;;28.70;;
82495;SDS011;72133;42.522;24.800;2024-02-21T00:15:30;47.58;;;28.63;;
82495;SDS011;72133;42.522;24.800;2024-02-21T00:17:56;44.72;;;28.08;;
82495;SDS011;72133;42.522;24.800;2024-02-21T00:20:21;47.70;;;28.67;;
82495;SDS011;72133;42.522;24.800;2024-02-21T00:22:47;48.20;;;29.10;;
82495;SDS011;72133;42.522;24.800;2024-02-21T00:25:13;46.40;;;28.25;;
82495;SDS011;72133;42.522;24.800;2024-02-21T00:27:38;45.35;;;29.13;;
82495;SDS011;72133;42.522;24.800;2024-02-21T00:30:04;53.25;;;31.08;;
82495;SDS011;72133;42.522;24.800;2024-02-21T00:32:31;49.38;;;30.00;;
82495;SDS011;72133;42.522;24.800;2024-02-21T00:34:57;47.33;;;28.50;;
82495;SDS011;72133;42.522;24.800;2024-02-21T00:37:22;50.30;;;29.77;;
82495;SDS011;72133;42.522;24.800;2024-02-21T00:39:48;48.30;;;29.13;;
82495;SDS011;72133;42.522;24.800;2024-02-21T00:42:14;47.38;;;29.35;;
82495;SDS011;72133;42.522;24.800;2024-02-21T00:44:39;56.47;;;32.33;;
82495;SDS011;72133;42.522;24.800;2024-02-21T00:47:05;52.85;;;33.10;;
82495;SDS011;72133;42.522;24.800;2024-02-21T00:49:30;46.25;;;27.45;;
82495;SDS011;72133;42.522;24.800;2024-02-21T00:51:56;41.10;;;27.10;;
82495;SDS011;72133;42.522;24.800;2024-02-21T00:54:21;43.60;;;27.95;;
82495;SDS011;72133;42.522;24.800;2024-02-21T00:56:48;49.40;;;30.45;;
82495;SDS011;72133;42.522;24.800;2024-02-21T00:59:13;56.08;;;33.95;;
82495;SDS011;72133;42.522;24.800;2024-02-21T01:01:39;56.42;;;30.73;;
82495;SDS011;72133;42.522;24.800;2024-02-21T01:04:07;51.80;;;31.45;;
82495;SDS011;72133;42.522;24.800;2024-02-21T01:06:33;54.08;;;32.10;;
82495;SDS011;72133;42.522;24.800;2024-02-21T01:08:59;49.90;;;31.83;;
82495;SDS011;72133;42.522;24.800;2024-02-21T01:11:24;53.47;;;33.72;;
82495;SDS011;72133;42.522;24.800;2024-02-21T01:13:50;57.55;;;34.70;;
82495;SDS011;72133;42.522;24.800;2024-02-21T01:16:15;43.65;;;28.27;;
82495;SDS011;72133;42.522;24.800;2024-02-21T01:18:41;49.30;;;29.55;;
82495;SDS011;72133;42.522;24.800;2024-02-21T01:21:07;50.17;;;30.60;;
82495;SDS011;72133;42.522;24.800;2024-02-21T01:23:34;45.13;;;29.83;;
82495;SDS011;72133;42.522;24.800;2024-02-21T01:26:00;48.72;;;31.20;;
82495;SDS011;72133;42.522;24.800;2024-02-21T01:28:26;52.08;;;32.38;;
82495;SDS011;72133;42.522;24.800;2024-02-21T01:30:51;45.78;;;29.33;;
82495;SDS011;72133;42.522;24.800;2024-02-21T01:33:17;46.20;;;29.92;;
82495;SDS011;72133;42.522;24.800;2024-02-21T01:35:42;46.80;;;30.25;;
82495;SDS011;72133;42.522;24.800;2024-02-21T01:38:08;50.42;;;26.95;;
82495;SDS011;72133;42.522;24.800;2024-02-21T01:40:33;46.53;;;30.58;;
82495;SDS011;72133;42.522;24.800;2024-02-21T01:42:59;56.42;;;32.97;;
82495;SDS011;72133;42.522;24.800;2024-02-21T01:45:28;57.60;;;34.75;;
82495;SDS011;72133;42.522;24.800;2024-02-21T01:47:53;50.60;;;33.63;;
82495;SDS011;72133;42.522;24.800;2024-02-21T01:50:19;44.40;;;28.58;;
82495;SDS011;72133;42.522;24.800;2024-02-21T01:52:45;43.67;;;28.33;;
82495;SDS011;72133;42.522;24.800;2024-02-21T01:55:12;46.20;;;29.45;;
82495;SDS011;72133;42.522;24.800;2024-02-21T01:57:38;48.17;;;29.35;;
82495;SDS011;72133;42.522;24.800;2024-02-21T02:00:05;49.55;;;30.98;;
82495;SDS011;72133;42.522;24.800;2024-02-21T02:02:31;55.15;;;31.63;;
82495;SDS011;72133;42.522;24.800;2024-02-21T02:04:57;48.05;;;30.25;;
82495;SDS011;72133;42.522;24.800;2024-02-21T02:07:23;53.22;;;32.53;;
82495;SDS011;72133;42.522;24.800;2024-02-21T02:09:48;50.15;;;30.20;;
82495;SDS011;72133;42.522;24.800;2024-02-21T02:12:14;50.55;;;30.50;;
82495;SDS011;72133;42.522;24.800;2024-02-21T02:14:40;51.63;;;30.92;;
82495;SDS011;72133;42.522;24.800;2024-02-21T02:17:06;46.35;;;28.48;;
82495;SDS011;72133;42.522;24.800;2024-02-21T02:19:32;49.55;;;30.15;;
82495;SDS011;72133;42.522;24.800;2024-02-21T02:22:07;48.75;;;30.33;;
82495;SDS011;72133;42.522;24.800;2024-02-21T02:24:39;53.53;;;30.15;;
82495;SDS011;72133;42.522;24.800;2024-02-21T02:27:04;51.67;;;30.98;;
82495;SDS011;72133;42.522;24.800;2024-02-21T02:29:31;55.53;;;32.75;;
82495;SDS011;72133;42.522;24.800;2024-02-21T02:31:58;47.47;;;29.42;;
82495;SDS011;72133;42.522;24.800;2024-02-21T02:34:23;49.53;;;30.33;;
82495;SDS011;72133;42.522;24.800;2024-02-21T02:36:49;48.47;;;30.02;;
82495;SDS011;72133;42.522;24.800;2024-02-21T02:39:14;50.22;;;29.30;;
82495;SDS011;72133;42.522;24.800;2024-02-21T02:41:40;48.65;;;29.48;;
82495;SDS011;72133;42.522;24.800;2024-02-21T02:44:06;46.33;;;29.15;;
82495;SDS011;72133;42.522;24.800;2024-02-21T02:46:31;52.55;;;31.52;;
82495;SDS011;72133;42.522;24.800;2024-02-21T02:48:57;48.58;;;30.33;;
82495;SDS011;72133;42.522;24.800;2024-02-21T02:51:22;53.65;;;31.08;;
82495;SDS011;72133;42.522;24.800;2024-02-21T02:53:48;48.88;;;30.40;;
82495;SDS011;72133;42.522;24.800;2024-02-21T02:56:14;47.25;;;31.08;;
82495;SDS011;72133;42.522;24.800;2024-02-21T02:58:41;56.35;;;32.90;;
82495;SDS011;72133;42.522;24.800;2024-02-21T03:01:08;50.90;;;30.75;;
82495;SDS011;72133;42.522;24.800;2024-02-21T03:03:33;52.30;;;30.83;;
82495;SDS011;72133;42.522;24.800;2024-02-21T03:05:59;52.92;;;31.02;;
82495;SDS011;72133;42.522;24.800;2024-02-21T03:08:24;54.35;;;31.58;;
82495;SDS011;72133;42.522;24.800;2024-02-21T03:10:50;53.30;;;33.17;;
82495;SDS011;72133;42.522;24.800;2024-02-21T03:13:16;48.90;;;30.35;;
82495;SDS011;72133;42.522;24.800;2024-02-21T03:15:41;46.67;;;28.70;;
82495;SDS011;72133;42.522;24.800;2024-02-21T03:18:07;46.90;;;27.15;;
82495;SDS011;72133;42.522;24.800;2024-02-21T03:20:32;47.00;;;29.02;;
82495;SDS011;72133;42.522;24.800;2024-02-21T03:22:58;48.10;;;28.30;;
82495;SDS011;72133;42.522;24.800;2024-02-21T03:25:23;46.10;;;28.10;;
82495;SDS011;72133;42.522;24.800;2024-02-21T03:27:49;46.30;;;27.90;;
82495;SDS011;72133;42.522;24.800;2024-02-21T03:30:14;46.55;;;27.67;;
82495;SDS011;72133;42.522;24.800;2024-02-21T03:32:40;47.75;;;29.73;;
82495;SDS011;72133;42.522;24.800;2024-02-21T03:35:06;50.78;;;29.88;;
82495;SDS011;72133;42.522;24.800;2024-02-21T03:37:32;52.08;;;30.73;;
82495;SDS011;72133;42.522;24.800;2024-02-21T03:39:57;51.75;;;31.05;;
82495;SDS011;72133;42.522;24.800;2024-02-21T03:42:23;52.88;;;31.45;;
82495;SDS011;72133;42.522;24.800;2024-02-21T03:44:48;50.42;;;29.33;;
82495;SDS011;72133;42.522;24.800;2024-02-21T03:47:14;47.90;;;29.23;;
82495;SDS011;72133;42.522;24.800;2024-02-21T03:49:39;54.22;;;31.38;;
82495;SDS011;72133;42.522;24.800;2024-02-21T03:52:05;49.53;;;29.48;;
82495;SDS011;72133;42.522;24.800;2024-02-21T03:54:30;48.92;;;30.50;;
82495;SDS011;72133;42.522;24.800;2024-02-21T03:56:56;46.90;;;29.77;;
82495;SDS011;72133;42.522;24.800;2024-02-21T03:59:22;51.22;;;31.63;;
82495;SDS011;72133;42.522;24.800;2024-02-21T04:01:51;49.80;;;30.30;;
82495;SDS011;72133;42.522;24.800;2024-02-21T04:04:17;54.83;;;31.60;;
82495;SDS011;72133;42.522;24.800;2024-02-21T04:06:46;48.65;;;29.35;;
82495;SDS011;72133;42.522;24.800;2024-02-21T04:09:13;47.38;;;28.42;;
82495;SDS011;72133;42.522;24.800;2024-02-21T04:11:39;46.30;;;30.15;;
82495;SDS011;72133;42.522;24.800;2024-02-21T04:14:04;47.67;;;28.95;;
82495;SDS011;72133;42.522;24.800;2024-02-21T04:16:30;47.03;;;28.92;;
82495;SDS011;72133;42.522;24.800;2024-02-21T04:18:58;48.47;;;29.23;;
82495;SDS011;72133;42.522;24.800;2024-02-21T04:21:23;50.70;;;29.60;;
82495;SDS011;72133;42.522;24.800;2024-02-21T04:23:49;49.72;;;29.27;;
82495;SDS011;72133;42.522;24.800;2024-02-21T04:26:15;60.90;;;29.70;;
82495;SDS011;72133;42.522;24.800;2024-02-21T04:28:41;51.72;;;29.73;;
82495;SDS011;72133;42.522;24.800;2024-02-21T04:31:06;46.22;;;27.73;;
82495;SDS011;72133;42.522;24.800;2024-02-21T04:33:32;49.90;;;29.30;;
82495;SDS011;72133;42.522;24.800;2024-02-21T04:35:57;49.38;;;29.77;;
82495;SDS011;72133;42.522;24.800;2024-02-21T04:38:23;53.30;;;31.33;;
82495;SDS011;72133;42.522;24.800;2024-02-21T04:40:49;58.63;;;31.15;;
82495;SDS011;72133;42.522;24.800;2024-02-21T04:43:15;49.35;;;29.30;;
82495;SDS011;72133;42.522;24.800;2024-02-21T04:45:40;52.80;;;30.65;;
82495;SDS011;72133;42.522;24.800;2024-02-21T04:48:06;53.58;;;31.13;;
82495;SDS011;72133;42.522;24.800;2024-02-21T04:50:32;51.85;;;29.38;;
82495;SDS011;72133;42.522;24.800;2024-02-21T04:52:57;53.72;;;29.60;;
82495;SDS011;72133;42.522;24.800;2024-02-21T04:55:23;51.67;;;28.75;;
82495;SDS011;72133;42.522;24.800;2024-02-21T04:57:49;59.35;;;31.15;;
82495;SDS011;72133;42.522;24.800;2024-02-21T05:00:14;82.45;;;32.83;;
82495;SDS011;72133;42.522;24.800;2024-02-21T05:02:40;95.40;;;35.55;;
82495;SDS011;72133;42.522;24.800;2024-02-21T05:05:06;108.07;;;34.20;;
82495;SDS011;72133;42.522;24.800;2024-02-21T05:07:32;107.55;;;34.10;;
82495;SDS011;72133;42.522;24.800;2024-02-21T05:09:57;90.38;;;37.15;;
82495;SDS011;72133;42.522;24.800;2024-02-21T05:12:23;86.53;;;32.35;;
82495;SDS011;72133;42.522;24.800;2024-02-21T05:14:48;69.97;;;31.45;;
82495;SDS011;72133;42.522;24.800;2024-02-21T05:17:14;76.85;;;31.27;;
82495;SDS011;72133;42.522;24.800;2024-02-21T05:19:40;92.75;;;33.42;;
82495;SDS011;72133;42.522;24.800;2024-02-21T05:22:06;118.05;;;35.92;;
82495;SDS011;72133;42.522;24.800;2024-02-21T05:24:31;127.03;;;34.15;;
82495;SDS011;72133;42.522;24.800;2024-02-21T05:26:57;111.80;;;32.65;;
82495;SDS011;72133;42.522;24.800;2024-02-21T05:29:22;106.47;;;32.97;;
82495;SDS011;72133;42.522;24.800;2024-02-21T05:34:20;75.68;;;32.05;;
82495;SDS011;72133;42.522;24.800;2024-02-21T05:36:45;60.40;;;30.83;;
82495;SDS011;72133;42.522;24.800;2024-02-21T05:39:11;79.45;;;32.40;;
82495;SDS011;72133;42.522;24.800;2024-02-21T05:41:38;102.78;;;34.13;;
82495;SDS011;72133;42.522;24.800;2024-02-21T05:44:03;100.65;;;39.17;;
82495;SDS011;72133;42.522;24.800;2024-02-21T05:46:29;111.07;;;37.40;;
82495;SDS011;72133;42.522;24.800;2024-02-21T05:48:54;123.00;;;37.15;;
82495;SDS011;72133;42.522;24.800;2024-02-21T05:51:20;115.00;;;39.55;;
82495;SDS011;72133;42.522;24.800;2024-02-21T05:53:45;109.95;;;36.25;;
82495;SDS011;72133;42.522;24.800;2024-02-21T05:56:11;101.15;;;35.75;;
82495;SDS011;72133;42.522;24.800;2024-02-21T05:58:38;106.85;;;31.45;;
82495;SDS011;72133;42.522;24.800;2024-02-21T06:01:03;119.45;;;33.58;;
82495;SDS011;72133;42.522;24.800;2024-02-21T06:03:30;122.90;;;35.03;;
82495;SDS011;72133;42.522;24.800;2024-02-21T06:05:55;74.95;;;33.97;;
82495;SDS011;72133;42.522;24.800;2024-02-21T06:08:21;74.97;;;32.42;;
82495;SDS011;72133;42.522;24.800;2024-02-21T06:10:46;78.25;;;32.30;;
82495;SDS011;72133;42.522;24.800;2024-02-21T06:13:13;90.57;;;34.65;;
82495;SDS011;72133;42.522;24.800;2024-02-21T06:15:39;79.82;;;31.70;;
82495;SDS011;72133;42.522;24.800;2024-02-21T06:18:05;81.13;;;31.20;;
82495;SDS011;72133;42.522;24.800;2024-02-21T06:20:30;86.03;;;31.55;;
82495;SDS011;72133;42.522;24.800;2024-02-21T06:22:56;77.60;;;33.50;;
82495;SDS011;72133;42.522;24.800;2024-02-21T06:25:22;81.90;;;40.42;;
82495;SDS011;72133;42.522;24.800;2024-02-21T06:27:48;74.85;;;34.88;;
82495;SDS011;72133;42.522;24.800;2024-02-21T06:30:13;93.75;;;51.17;;
82495;SDS011;72133;42.522;24.800;2024-02-21T06:32:39;64.80;;;38.08;;
82495;SDS011;72133;42.522;24.800;2024-02-21T06:35:04;77.82;;;32.15;;
82495;SDS011;72133;42.522;24.800;2024-02-21T06:37:30;97.93;;;34.42;;
82495;SDS011;72133;42.522;24.800;2024-02-21T06:39:57;69.05;;;31.85;;
82495;SDS011;72133;42.522;24.800;2024-02-21T06:42:26;69.68;;;31.67;;
82495;SDS011;72133;42.522;24.800;2024-02-21T06:44:51;53.67;;;30.27;;
82495;SDS011;72133;42.522;24.800;2024-02-21T06:47:17;62.28;;;32.58;;
82495;SDS011;72133;42.522;24.800;2024-02-21T06:49:42;64.07;;;32.58;;
82495;SDS011;72133;42.522;24.800;2024-02-21T06:52:08;64.78;;;34.83;;
82495;SDS011;72133;42.522;24.800;2024-02-21T06:54:34;56.67;;;32.70;;
82495;SDS011;72133;42.522;24.800;2024-02-21T06:56:59;58.15;;;32.70;;
82495;SDS011;72133;42.522;24.800;2024-02-21T06:59:25;48.63;;;33.00;;
82495;SDS011;72133;42.522;24.800;2024-02-21T07:01:51;42.40;;;29.67;;
82495;SDS011;72133;42.522;24.800;2024-02-21T07:04:18;45.10;;;30.88;;
82495;SDS011;72133;42.522;24.800;2024-02-21T07:06:43;49.45;;;30.40;;
82495;SDS011;72133;42.522;24.800;2024-02-21T07:09:10;42.72;;;32.38;;
82495;SDS011;72133;42.522;24.800;2024-02-21T07:11:36;42.20;;;31.17;;
82495;SDS011;72133;42.522;24.800;2024-02-21T07:14:01;42.83;;;31.23;;
82495;SDS011;72133;42.522;24.800;2024-02-21T07:16:27;39.58;;;29.92;;
82495;SDS011;72133;42.522;24.800;2024-02-21T07:18:54;41.65;;;32.03;;
82495;SDS011;72133;42.522;24.800;2024-02-21T07:21:20;40.00;;;31.30;;
82495;SDS011;72133;42.522;24.800;2024-02-21T07:23:46;38.35;;;30.10;;
82495;SDS011;72133;42.522;24.800;2024-02-21T07:26:11;37.38;;;29.10;;
82495;SDS011;72133;42.522;24.800;2024-02-21T07:28:37;39.85;;;29.05;;
82495;SDS011;72133;42.522;24.800;2024-02-21T07:31:02;40.53;;;30.30;;
82495;SDS011;72133;42.522;24.800;2024-02-21T07:33:28;38.42;;;27.55;;
82495;SDS011;72133;42.522;24.800;2024-02-21T07:35:55;38.95;;;29.25;;
82495;SDS011;72133;42.522;24.800;2024-02-21T07:38:21;37.63;;;28.75;;
82495;SDS011;72133;42.522;24.800;2024-02-21T07:40:47;39.97;;;29.92;;
82495;SDS011;72133;42.522;24.800;2024-02-21T07:43:13;38.97;;;28.70;;
82495;SDS011;72133;42.522;24.800;2024-02-21T07:45:39;41.78;;;31.58;;
82495;SDS011;72133;42.522;24.800;2024-02-21T07:48:05;38.47;;;27.98;;
82495;SDS011;72133;42.522;24.800;2024-02-21T07:50:31;37.45;;;29.00;;
82495;SDS011;72133;42.522;24.800;2024-02-21T07:52:57;39.95;;;28.45;;
82495;SDS011;72133;42.522;24.800;2024-02-21T07:55:22;39.78;;;29.58;;
82495;SDS011;72133;42.522;24.800;2024-02-21T07:57:48;41.00;;;28.60;;
82495;SDS011;72133;42.522;24.800;2024-02-21T08:00:14;38.55;;;29.77;;
82495;SDS011;72133;42.522;24.800;2024-02-21T08:02:48;39.55;;;29.75;;
82495;SDS011;72133;42.522;24.800;2024-02-21T08:05:14;39.13;;;28.17;;
82495;SDS011;72133;42.522;24.800;2024-02-21T08:07:39;39.58;;;29.75;;
82495;SDS011;72133;42.522;24.800;2024-02-21T08:10:05;39.28;;;29.75;;
82495;SDS011;72133;42.522;24.800;2024-02-21T08:12:34;47.00;;;34.72;;
82495;SDS011;72133;42.522;24.800;2024-02-21T08:15:00;42.13;;;34.33;;
82495;SDS011;72133;42.522;24.800;2024-02-21T08:17:26;43.28;;;29.55;;
82495;SDS011;72133;42.522;24.800;2024-02-21T08:19:51;43.70;;;29.85;;
82495;SDS011;72133;42.522;24.800;2024-02-21T08:22:17;42.45;;;34.03;;
82495;SDS011;72133;42.522;24.800;2024-02-21T08:24:42;41.50;;;31.67;;
82495;SDS011;72133;42.522;24.800;2024-02-21T08:27:08;36.78;;;28.73;;
82495;SDS011;72133;42.522;24.800;2024-02-21T08:29:34;41.63;;;30.17;;
82495;SDS011;72133;42.522;24.800;2024-02-21T08:31:59;39.92;;;30.08;;
82495;SDS011;72133;42.522;24.800;2024-02-21T08:34:25;36.47;;;27.15;;
82495;SDS011;72133;42.522;24.800;2024-02-21T08:36:51;40.05;;;28.73;;
82495;SDS011;72133;42.522;24.800;2024-02-21T08:39:16;38.88;;;28.58;;
82495;SDS011;72133;42.522;24.800;2024-02-21T08:41:42;36.90;;;26.95;;
82495;SDS011;72133;42.522;24.800;2024-02-21T08:44:07;39.13;;;27.45;;
82495;SDS011;72133;42.522;24.800;2024-02-21T08:46:33;40.63;;;27.48;;
82495;SDS011;72133;42.522;24.800;2024-02-21T08:48:59;39.13;;;29.15;;
82495;SDS011;72133;42.522;24.800;2024-02-21T08:51:24;38.45;;;28.95;;
82495;SDS011;72133;42.522;24.800;2024-02-21T08:53:50;40.08;;;27.48;;
82495;SDS011;72133;42.522;24.800;2024-02-21T08:56:17;39.08;;;27.30;;
82495;SDS011;72133;42.522;24.800;2024-02-21T08:58:42;37.83;;;27.20;;
82495;SDS011;72133;42.522;24.800;2024-02-21T09:01:08;39.47;;;27.67;;
82495;SDS011;72133;42.522;24.800;2024-02-21T09:03:37;38.60;;;26.63;;
82495;SDS011;72133;42.522;24.800;2024-02-21T09:06:04;40.58;;;29.77;;
82495;SDS011;72133;42.522;24.800;2024-02-21T09:08:30;39.45;;;31.02;;
82495;SDS011;72133;42.522;24.800;2024-02-21T09:11:02;37.20;;;28.38;;
82495;SDS011;72133;42.522;24.800;2024-02-21T09:13:28;41.20;;;30.70;;
82495;SDS011;72133;42.522;24.800;2024-02-21T09:15:55;38.15;;;27.67;;
82495;SDS011;72133;42.522;24.800;2024-02-21T09:18:20;36.10;;;26.85;;
82495;SDS011;72133;42.522;24.800;2024-02-21T09:20:46;38.15;;;27.55;;
82495;SDS011;72133;42.522;24.800;2024-02-21T09:23:13;36.63;;;27.88;;
82495;SDS011;72133;42.522;24.800;2024-02-21T09:25:39;34.15;;;25.00;;
82495;SDS011;72133;42.522;24.800;2024-02-21T09:28:05;32.55;;;25.10;;
82495;SDS011;72133;42.522;24.800;2024-02-21T09:30:31;31.23;;;23.92;;
82495;SDS011;72133;42.522;24.800;2024-02-21T09:32:57;40.60;;;29.15;;
82495;SDS011;72133;42.522;24.800;2024-02-21T09:35:24;41.20;;;29.33;;
82495;SDS011;72133;42.522;24.800;2024-02-21T09:37:52;42.45;;;31.00;;
82495;SDS011;72133;42.522;24.800;2024-02-21T09:40:18;45.15;;;34.22;;
82495;SDS011;72133;42.522;24.800;2024-02-21T09:42:44;39.55;;;28.15;;
82495;SDS011;72133;42.522;24.800;2024-02-21T09:47:55;39.47;;;29.13;;
82495;SDS011;72133;42.522;24.800;2024-02-21T09:50:43;37.60;;;27.35;;
82495;SDS011;72133;42.522;24.800;2024-02-21T09:53:09;45.00;;;36.17;;
82495;SDS011;72133;42.522;24.800;2024-02-21T09:55:37;33.35;;;26.67;;
82495;SDS011;72133;42.522;24.800;2024-02-21T09:58:09;34.50;;;26.13;;
82495;SDS011;72133;42.522;24.800;2024-02-21T10:00:35;36.45;;;26.27;;
82495;SDS011;72133;42.522;24.800;2024-02-21T10:03:01;35.70;;;25.25;;
82495;SDS011;72133;42.522;24.800;2024-02-21T10:05:34;25.17;;;19.73;;
82495;SDS011;72133;42.522;24.800;2024-02-21T10:08:00;24.92;;;17.92;;
82495;SDS011;72133;42.522;24.800;2024-02-21T10:10:26;27.20;;;19.55;;
82495;SDS011;72133;42.522;24.800;2024-02-21T10:12:53;30.85;;;21.77;;
82495;SDS011;72133;42.522;24.800;2024-02-21T10:15:22;24.20;;;18.33;;
82495;SDS011;72133;42.522;24.800;2024-02-21T10:17:49;23.70;;;18.08;;
82495;SDS011;72133;42.522;24.800;2024-02-21T10:20:23;25.00;;;18.70;;
82495;SDS011;72133;42.522;24.800;2024-02-21T10:22:48;22.60;;;17.10;;
82495;SDS011;72133;42.522;24.800;2024-02-21T10:25:14;21.33;;;16.65;;
82495;SDS011;72133;42.522;24.800;2024-02-21T10:27:40;20.55;;;16.13;;
82495;SDS011;72133;42.522;24.800;2024-02-21T10:30:07;18.95;;;14.43;;
82495;SDS011;72133;42.522;24.800;2024-02-21T10:32:33;17.15;;;13.75;;
82495;SDS011;72133;42.522;24.800;2024-02-21T10:35:02;19.38;;;14.98;;
82495;SDS011;72133;42.522;24.800;2024-02-21T10:37:29;19.63;;;14.23;;
82495;SDS011;72133;42.522;24.800;2024-02-21T10:39:55;19.08;;;14.70;;
82495;SDS011;72133;42.522;24.800;2024-02-21T10:42:22;20.08;;;15.60;;
82495;SDS011;72133;42.522;24.800;2024-02-21T10:44:49;19.02;;;13.48;;
82495;SDS011;72133;42.522;24.800;2024-02-21T10:47:16;18.98;;;15.88;;
82495;SDS011;72133;42.522;24.800;2024-02-21T10:49:46;21.85;;;16.40;;
82495;SDS011;72133;42.522;24.800;2024-02-21T10:52:29;20.52;;;16.65;;
82495;SDS011;72133;42.522;24.800;2024-02-21T10:55:14;24.23;;;18.35;;
82495;SDS011;72133;42.522;24.800;2024-02-21T10:57:44;21.02;;;15.43;;
82495;SDS011;72133;42.522;24.800;2024-02-21T11:00:11;19.77;;;15.65;;
82495;SDS011;72133;42.522;24.800;2024-02-21T11:02:37;19.23;;;15.02;;
82495;SDS011;72133;42.522;24.800;2024-02-21T11:05:04;20.52;;;17.67;;
82495;SDS011;72133;42.522;24.800;2024-02-21T11:07:31;20.08;;;15.18;;
82495;SDS011;72133;42.522;24.800;2024-02-21T11:09:57;20.80;;;15.73;;
82495;SDS011;72133;42.522;24.800;2024-02-21T11:12:24;20.45;;;15.70;;
82495;SDS011;72133;42.522;24.800;2024-02-21T11:14:51;23.02;;;15.85;;
82495;SDS011;72133;42.522;24.800;2024-02-21T11:17:17;21.33;;;17.50;;
82495;SDS011;72133;42.522;24.800;2024-02-21T11:19:43;18.85;;;15.60;;
82495;SDS011;72133;42.522;24.800;2024-02-21T11:22:16;19.90;;;15.40;;
82495;SDS011;72133;42.522;24.800;2024-02-21T11:29:46;20.60;;;16.60;;
82495;SDS011;72133;42.522;24.800;2024-02-21T11:32:14;21.88;;;17.00;;
82495;SDS011;72133;42.522;24.800;2024-02-21T11:34:40;26.55;;;19.98;;
82495;SDS011;72133;42.522;24.800;2024-02-21T11:37:15;27.00;;;19.35;;
82495;SDS011;72133;42.522;24.800;2024-02-21T11:39:41;21.95;;;17.67;;
82495;SDS011;72133;42.522;24.800;2024-02-21T11:42:07;23.98;;;17.90;;
82495;SDS011;72133;42.522;24.800;2024-02-21T11:44:37;26.77;;;20.17;;
82495;SDS011;72133;42.522;24.800;2024-02-21T11:47:07;22.13;;;17.00;;
82495;SDS011;72133;42.522;24.800;2024-02-21T11:49:43;18.70;;;14.85;;
82495;SDS011;72133;42.522;24.800;2024-02-21T11:52:14;17.35;;;13.60;;
82495;SDS011;72133;42.522;24.800;2024-02-21T11:54:40;16.58;;;12.65;;
82495;SDS011;72133;42.522;24.800;2024-02-21T11:57:06;13.95;;;11.15;;
82495;SDS011;72133;42.522;24.800;2024-02-21T11:59:32;13.13;;;10.13;;
82495;SDS011;72133;42.522;24.800;2024-02-21T12:01:59;12.23;;;9.98;;
82495;SDS011;72133;42.522;24.800;2024-02-21T12:04:25;12.98;;;10.02;;
82495;SDS011;72133;42.522;24.800;2024-02-21T12:06:52;12.93;;;9.60;;
82495;SDS011;72133;42.522;24.800;2024-02-21T12:09:19;13.77;;;11.00;;
82495;SDS011;72133;42.522;24.800;2024-02-21T12:11:45;12.02;;;9.75;;
82495;SDS011;72133;42.522;24.800;2024-02-21T12:14:15;11.25;;;9.05;;
82495;SDS011;72133;42.522;24.800;2024-02-21T12:16:41;11.90;;;9.27;;
82495;SDS011;72133;42.522;24.800;2024-02-21T12:19:07;12.25;;;9.93;;
82495;SDS011;72133;42.522;24.800;2024-02-21T12:21:34;12.32;;;9.55;;
82495;SDS011;72133;42.522;24.800;2024-02-21T12:24:11;12.93;;;10.45;;
82495;SDS011;72133;42.522;24.800;2024-02-21T12:26:39;13.45;;;10.73;;
82495;SDS011;72133;42.522;24.800;2024-02-21T12:29:05;13.88;;;10.38;;
82495;SDS011;72133;42.522;24.800;2024-02-21T12:31:31;15.68;;;11.93;;
82495;SDS011;72133;42.522;24.800;2024-02-21T12:33:56;14.27;;;10.40;;
82495;SDS011;72133;42.522;24.800;2024-02-21T12:36:22;14.52;;;11.15;;
82495;SDS011;72133;42.522;24.800;2024-02-21T12:38:47;12.43;;;10.77;;
82495;SDS011;72133;42.522;24.800;2024-02-21T12:41:14;12.88;;;11.15;;
82495;SDS011;72133;42.522;24.800;2024-02-21T12:43:40;13.27;;;10.88;;
82495;SDS011;72133;42.522;24.800;2024-02-21T12:46:05;15.65;;;10.85;;
82495;SDS011;72133;42.522;24.800;2024-02-21T12:48:32;13.40;;;10.32;;
82495;SDS011;72133;42.522;24.800;2024-02-21T12:50:59;15.43;;;11.20;;
82495;SDS011;72133;42.522;24.800;2024-02-21T12:53:24;14.88;;;11.63;;
82495;SDS011;72133;42.522;24.800;2024-02-21T12:55:50;13.85;;;10.85;;
82495;SDS011;72133;42.522;24.800;2024-02-21T12:58:16;9.32;;;7.63;;
82495;SDS011;72133;42.522;24.800;2024-02-21T13:00:41;7.80;;;5.57;;
82495;SDS011;72133;42.522;24.800;2024-02-21T13:03:07;8.20;;;6.00;;
82495;SDS011;72133;42.522;24.800;2024-02-21T13:05:37;6.75;;;5.32;;
82495;SDS011;72133;42.522;24.800;2024-02-21T13:08:04;6.47;;;5.07;;
82495;SDS011;72133;42.522;24.800;2024-02-21T13:10:31;10.88;;;7.53;;
82495;SDS011;72133;42.522;24.800;2024-02-21T13:12:58;8.57;;;6.75;;
82495;SDS011;72133;42.522;24.800;2024-02-21T13:15:24;7.30;;;5.85;;
82495;SDS011;72133;42.522;24.800;2024-02-21T13:17:49;6.45;;;4.78;;
82495;SDS011;72133;42.522;24.800;2024-02-21T13:20:15;8.18;;;5.47;;
82495;SDS011;72133;42.522;24.800;2024-02-21T13:22:41;9.98;;;6.13;;
82495;SDS011;72133;42.522;24.800;2024-02-21T13:25:06;8.57;;;6.50;;
82495;SDS011;72133;42.522;24.800;2024-02-21T13:27:35;9.75;;;7.55;;
82495;SDS011;72133;42.522;24.800;2024-02-21T13:30:01;10.73;;;7.95;;
82495;SDS011;72133;42.522;24.800;2024-02-21T13:32:31;8.68;;;6.50;;
82495;SDS011;72133;42.522;24.800;2024-02-21T13:34:57;8.70;;;6.95;;
82495;SDS011;72133;42.522;24.800;2024-02-21T13:37:26;9.55;;;7.05;;
82495;SDS011;72133;42.522;24.800;2024-02-21T13:39:52;10.02;;;7.97;;
82495;SDS011;72133;42.522;24.800;2024-02-21T13:42:18;9.43;;;6.53;;
82495;SDS011;72133;42.522;24.800;2024-02-21T13:44:44;8.02;;;6.68;;
82495;SDS011;72133;42.522;24.800;2024-02-21T13:47:10;8.32;;;6.88;;
82495;SDS011;72133;42.522;24.800;2024-02-21T13:49:38;10.00;;;7.38;;
82495;SDS011;72133;42.522;24.800;2024-02-21T13:52:04;8.68;;;6.78;;
82495;SDS011;72133;42.522;24.800;2024-02-21T13:54:30;10.48;;;8.65;;
82495;SDS011;72133;42.522;24.800;2024-02-21T13:56:56;21.90;;;19.45;;
82495;SDS011;72133;42.522;24.800;2024-02-21T13:59:21;11.73;;;9.68;;
82495;SDS011;72133;42.522;24.800;2024-02-21T14:01:47;13.80;;;10.63;;
82495;SDS011;72133;42.522;24.800;2024-02-21T14:04:13;13.13;;;10.43;;
82495;SDS011;72133;42.522;24.800;2024-02-21T14:06:39;10.57;;;8.90;;
82495;SDS011;72133;42.522;24.800;2024-02-21T14:09:09;11.15;;;9.00;;
82495;SDS011;72133;42.522;24.800;2024-02-21T14:11:35;9.65;;;7.75;;
82495;SDS011;72133;42.522;24.800;2024-02-21T14:14:01;10.25;;;7.93;;
82495;SDS011;72133;42.522;24.800;2024-02-21T14:16:26;11.00;;;8.27;;